Time;durP1;ratioP1;P1;durP2;ratioP2;P2;SDS_P1;SDS_P2;PMS_P1;PMS_P2;Temp;Humidity;BMP_temperature;BMP_pressure;BME280_temperature;BME280_humidity;BME280_pressure;Samples;Min_cycle;Max_cycle;Signal;HPM_P1;HPM_P2
2023/09/05 00:00:05;;;;;;;4.65;3.45;;;19.60;42.80;;;;;;5038799;28;20017;-75
2023/09/05 00:02:31;;;;;;;3.88;2.92;;;19.60;44.60;;;;;;5038579;28;20103;-74
2023/09/05 00:04:56;;;;;;;5.97;2.88;;;19.60;44.00;;;;;;5038526;28;20147;-74
2023/09/05 00:07:23;;;;;;;4.82;3.22;;;19.50;44.50;;;;;;5038400;28;20021;-74
2023/09/05 00:09:49;;;;;;;6.05;2.90;;;19.50;44.00;;;;;;5038051;28;20057;-75
2023/09/05 00:12:14;;;;;;;3.20;2.70;;;19.50;43.90;;;;;;5038554;28;20466;-75
2023/09/05 00:14:40;;;;;;;5.03;3.13;;;19.40;43.50;;;;;;5038373;28;20459;-74
2023/09/05 00:17:05;;;;;;;4.93;3.20;;;19.40;43.80;;;;;;5038362;28;20021;-75
2023/09/05 00:19:31;;;;;;;5.32;3.22;;;19.30;44.00;;;;;;5038309;28;20103;-75
2023/09/05 00:21:57;;;;;;;4.70;3.13;;;19.30;44.00;;;;;;5038020;28;20399;-73
2023/09/05 00:24:30;;;;;;;3.30;2.97;;;19.30;43.60;;;;;;5038210;28;20430;-74
2023/09/05 00:26:56;;;;;;;3.47;3.03;;;19.30;44.00;;;;;;5054901;28;20020;-74
2023/09/05 00:29:23;;;;;;;3.10;2.80;;;19.30;43.00;;;;;;5038049;28;20029;-75
2023/09/05 00:31:49;;;;;;;3.00;2.67;;;19.30;42.70;;;;;;5038079;28;20074;-75
2023/09/05 00:34:15;;;;;;;2.65;2.45;;;19.20;42.40;;;;;;5038148;28;20029;-74
2023/09/05 00:36:42;;;;;;;2.97;2.65;;;19.30;42.70;;;;;;5038116;28;20121;-75
2023/09/05 00:39:08;;;;;;;3.90;3.40;;;19.20;42.60;;;;;;5037971;28;20421;-73
2023/09/05 00:41:34;;;;;;;3.00;2.70;;;19.20;41.70;;;;;;5038007;28;20053;-74
2023/09/05 00:44:00;;;;;;;4.93;3.10;;;19.20;41.70;;;;;;5037804;28;20506;-74
2023/09/05 00:46:28;;;;;;;3.80;2.65;;;19.30;41.60;;;;;;5037090;28;20021;-74
2023/09/05 00:48:57;;;;;;;3.67;2.92;;;19.20;42.10;;;;;;5037729;28;20395;-73
2023/09/05 00:51:25;;;;;;;4.53;2.90;;;19.20;42.00;;;;;;5037806;28;20074;-74
2023/09/05 00:53:51;;;;;;;3.00;2.58;;;19.10;41.50;;;;;;5037750;28;20389;-74
2023/09/05 00:56:17;;;;;;;5.00;2.72;;;19.20;41.80;;;;;;5037696;28;20052;-74
2023/09/05 00:58:42;;;;;;;3.78;2.67;;;19.20;42.10;;;;;;5023743;28;20468;-74
2023/09/05 01:01:08;;;;;;;3.00;2.47;;;19.20;41.90;;;;;;5017786;28;20032;-74
2023/09/05 01:03:34;;;;;;;4.25;2.60;;;19.10;40.90;;;;;;5017383;28;20479;-73
2023/09/05 01:06:08;;;;;;;2.63;2.17;;;19.10;40.50;;;;;;5017633;28;20068;-73
2023/09/05 01:09:00;;;;;;;4.00;2.55;;;19.10;40.60;;;;;;5017660;28;20025;-73
2023/09/05 01:11:27;;;;;;;3.92;2.70;;;19.10;41.10;;;;;;5017657;28;20030;-74
2023/09/05 01:13:52;;;;;;;3.15;2.85;;;19.10;41.20;;;;;;5017386;28;20049;-73
2023/09/05 01:16:18;;;;;;;3.17;2.40;;;19.10;40.30;;;;;;5017484;28;20021;-76
2023/09/05 01:18:45;;;;;;;4.10;2.92;;;19.10;40.30;;;;;;5017441;28;20056;-73
2023/09/05 01:21:23;;;;;;;2.75;2.47;;;19.00;40.20;;;;;;5027326;28;20044;-74
2023/09/05 01:24:12;;;;;;;2.97;2.58;;;19.00;40.70;;;;;;5037091;28;20039;-74
2023/09/05 01:26:40;;;;;;;3.08;2.58;;;19.00;41.60;;;;;;5036938;28;20078;-75
2023/09/05 01:29:06;;;;;;;4.20;2.50;;;19.00;41.00;;;;;;5036995;28;20115;-74
2023/09/05 01:31:33;;;;;;;2.97;2.30;;;19.00;41.20;;;;;;5036956;28;20024;-75
2023/09/05 01:33:59;;;;;;;3.67;2.60;;;19.00;41.20;;;;;;5036689;28;20032;-74
2023/09/05 01:36:24;;;;;;;2.83;2.45;;;19.00;41.50;;;;;;5036953;28;20024;-75
2023/09/05 01:38:50;;;;;;;2.80;2.35;;;18.90;41.90;;;;;;5036839;28;20063;-75
2023/09/05 01:41:15;;;;;;;3.08;2.67;;;18.90;42.00;;;;;;5036364;28;20479;-75
2023/09/05 01:43:41;;;;;;;4.30;2.25;;;18.90;42.10;;;;;;5036652;28;20118;-75
2023/09/05 01:46:07;;;;;;;2.83;2.50;;;18.90;42.20;;;;;;5036566;28;20112;-75
2023/09/05 01:48:32;;;;;;;2.65;2.15;;;18.80;42.60;;;;;;5036605;28;20490;-74
2023/09/05 01:50:58;;;;;;;4.07;2.30;;;18.80;42.60;;;;;;5036613;28;20490;-75
2023/09/05 01:53:24;;;;;;;3.25;2.40;;;18.80;43.00;;;;;;5036464;28;20025;-75
2023/09/05 01:55:49;;;;;;;3.47;2.20;;;18.70;43.20;;;;;;5036336;28;20486;-75
2023/09/05 01:58:15;;;;;;;3.30;2.40;;;18.70;43.50;;;;;;5035329;28;20387;-74
2023/09/05 02:00:40;;;;;;;2.95;2.40;;;18.70;43.40;;;;;;5036243;28;20017;-74
2023/09/05 02:03:06;;;;;;;2.58;2.05;;;18.70;43.60;;;;;;5036255;28;20167;-75
2023/09/05 02:05:32;;;;;;;4.70;2.33;;;18.70;43.80;;;;;;5035982;28;20061;-74
2023/09/05 02:07:57;;;;;;;3.13;2.30;;;18.70;44.10;;;;;;5036039;28;20021;-74
2023/09/05 02:10:23;;;;;;;3.03;2.33;;;18.60;44.00;;;;;;5036195;28;20024;-74
2023/09/05 02:12:49;;;;;;;2.97;2.00;;;18.60;44.10;;;;;;5036088;28;20025;-74
2023/09/05 02:15:15;;;;;;;4.22;2.10;;;18.60;44.20;;;;;;5036175;28;20047;-75
2023/09/05 02:17:40;;;;;;;2.85;2.00;;;18.60;44.50;;;;;;5036135;28;20558;-76
2023/09/05 02:20:07;;;;;;;2.30;1.83;;;18.50;44.80;;;;;;5035923;28;20047;-75
2023/09/05 02:22:32;;;;;;;3.50;2.20;;;18.50;44.50;;;;;;5035825;28;20033;-75
2023/09/05 02:25:00;;;;;;;3.38;2.30;;;18.50;44.40;;;;;;5035977;28;20037;-75
2023/09/05 02:27:26;;;;;;;3.50;2.20;;;18.50;44.50;;;;;;5035590;28;20024;-75
2023/09/05 02:30:01;;;;;;;4.20;2.50;;;18.40;44.60;;;;;;5035639;28;20037;-75
2023/09/05 02:32:29;;;;;;;2.60;2.40;;;18.40;44.70;;;;;;5053332;28;20029;-75
2023/09/05 02:34:56;;;;;;;2.45;2.17;;;18.40;44.80;;;;;;5035408;28;20024;-76
2023/09/05 02:37:22;;;;;;;3.00;2.25;;;18.50;44.90;;;;;;5035577;28;20175;-75
2023/09/05 02:39:47;;;;;;;4.03;2.25;;;18.40;44.80;;;;;;5035825;28;20075;-75
2023/09/05 02:42:13;;;;;;;2.50;1.75;;;18.40;44.90;;;;;;5035664;28;20070;-75
2023/09/05 02:44:39;;;;;;;3.92;2.40;;;18.40;45.80;;;;;;5035728;28;20479;-75
2023/09/05 02:47:04;;;;;;;4.18;2.33;;;18.40;45.40;;;;;;5035661;28;20028;-74
2023/09/05 02:49:30;;;;;;;3.38;2.33;;;18.40;45.20;;;;;;5035650;28;20356;-74
2023/09/05 02:51:59;;;;;;;3.00;1.60;;;18.40;45.60;;;;;;5035473;28;20017;-74
2023/09/05 02:54:28;;;;;;;3.85;2.30;;;18.40;46.00;;;;;;5035563;28;20418;-75
2023/09/05 02:56:55;;;;;;;2.67;2.00;;;18.40;45.90;;;;;;5035458;28;20021;-75
2023/09/05 02:59:21;;;;;;;2.97;2.22;;;18.40;46.30;;;;;;5053234;28;20056;-75
2023/09/05 03:01:47;;;;;;;2.33;2.13;;;18.30;46.30;;;;;;5034994;28;20028;-76
2023/09/05 03:04:16;;;;;;;2.97;2.60;;;18.30;46.30;;;;;;5052771;28;20176;-74
2023/09/05 03:06:42;;;;;;;2.85;2.38;;;18.30;46.60;;;;;;5035323;28;20052;-74
2023/09/05 03:09:08;;;;;;;2.78;2.30;;;18.30;46.50;;;;;;5035300;28;20041;-74
2023/09/05 03:11:33;;;;;;;2.08;1.70;;;18.30;46.90;;;;;;5035023;28;20028;-74
2023/09/05 03:14:01;;;;;;;2.47;1.92;;;18.20;47.10;;;;;;5035102;28;20140;-74
2023/09/05 03:16:28;;;;;;;2.22;2.03;;;18.20;47.30;;;;;;5034860;28;20096;-74
2023/09/05 03:18:59;;;;;;;2.30;2.05;;;18.20;47.20;;;;;;5035165;28;20366;-74
2023/09/05 03:21:25;;;;;;;2.78;2.25;;;18.30;47.50;;;;;;5035007;28;20060;-74
2023/09/05 03:23:51;;;;;;;3.10;2.30;;;18.20;47.60;;;;;;5034872;28;20041;-74
2023/09/05 03:26:16;;;;;;;2.97;2.20;;;18.10;48.30;;;;;;5034922;28;20028;-74
2023/09/05 03:28:44;;;;;;;2.90;2.08;;;18.00;48.50;;;;;;5035082;28;20029;-73
2023/09/05 03:31:10;;;;;;;2.60;2.20;;;18.00;49.00;;;;;;5035022;28;20456;-73
2023/09/05 03:33:35;;;;;;;3.60;2.15;;;18.00;49.90;;;;;;5034876;28;20027;-75
2023/09/05 03:36:01;;;;;;;2.25;1.95;;;17.90;49.40;;;;;;5035074;28;20025;-74
2023/09/05 03:38:27;;;;;;;2.03;1.83;;;17.80;49.10;;;;;;5034868;28;20025;-74
2023/09/05 03:40:54;;;;;;;3.25;2.20;;;17.90;49.30;;;;;;5034451;28;20025;-74
2023/09/05 03:43:20;;;;;;;4.30;2.10;;;17.80;49.30;;;;;;5034738;28;20037;-74
2023/09/05 03:45:48;;;;;;;3.75;2.13;;;17.80;49.40;;;;;;5034891;28;20071;-74
2023/09/05 03:48:13;;;;;;;3.42;1.92;;;17.80;49.40;;;;;;5034679;28;20389;-74
2023/09/05 03:50:39;;;;;;;4.07;2.47;;;17.90;49.50;;;;;;5034638;28;20025;-74
2023/09/05 03:53:05;;;;;;;3.70;2.20;;;17.80;49.70;;;;;;5034624;28;20032;-74
2023/09/05 03:55:34;;;;;;;2.30;2.08;;;17.70;50.40;;;;;;5034764;28;20025;-75
2023/09/05 03:58:02;;;;;;;3.47;2.15;;;17.70;50.50;;;;;;5052220;28;20024;-74
2023/09/05 04:00:29;;;;;;;2.53;2.10;;;17.60;50.50;;;;;;5034390;28;20029;-73
2023/09/05 04:02:55;;;;;;;3.75;2.15;;;17.60;50.40;;;;;;5034530;28;20036;-74
2023/09/05 04:05:21;;;;;;;3.65;2.28;;;17.60;50.40;;;;;;5034387;28;20021;-74
2023/09/05 04:07:47;;;;;;;2.15;1.95;;;17.60;51.30;;;;;;5034456;28;20029;-74
2023/09/05 04:10:13;;;;;;;2.55;2.03;;;17.60;50.60;;;;;;5034135;28;20029;-73
2023/09/05 04:12:39;;;;;;;4.55;2.20;;;17.50;50.80;;;;;;5034447;28;20025;-74
2023/09/05 04:15:05;;;;;;;3.30;1.95;;;17.50;51.20;;;;;;5034289;28;20124;-74
2023/09/05 04:17:31;;;;;;;2.30;2.10;;;17.50;51.30;;;;;;5034315;28;20467;-73
2023/09/05 04:19:56;;;;;;;4.05;2.10;;;17.50;51.60;;;;;;5034357;28;20032;-73
2023/09/05 04:22:24;;;;;;;2.50;2.28;;;17.40;52.20;;;;;;5035713;28;20044;-74
2023/09/05 04:24:54;;;;;;;2.72;2.10;;;17.40;52.30;;;;;;5037988;28;20053;-73
2023/09/05 04:27:21;;;;;;;2.47;2.20;;;17.30;52.50;;;;;;5021338;28;20107;-74
2023/09/05 04:29:50;;;;;;;2.42;2.08;;;17.20;52.30;;;;;;5037978;28;20115;-74
2023/09/05 04:32:17;;;;;;;2.92;2.35;;;17.20;52.30;;;;;;5037984;28;20029;-73
2023/09/05 04:34:44;;;;;;;2.17;1.98;;;17.20;52.40;;;;;;5038014;28;20033;-73
2023/09/05 04:37:09;;;;;;;2.85;2.20;;;17.20;52.50;;;;;;5037467;28;20112;-74
2023/09/05 04:39:37;;;;;;;3.83;2.45;;;17.20;52.70;;;;;;5037943;28;20104;-74
2023/09/05 04:42:03;;;;;;;2.80;2.35;;;17.20;52.00;;;;;;5037860;28;20115;-73
2023/09/05 04:44:28;;;;;;;4.20;2.00;;;17.20;51.50;;;;;;5055526;28;20033;-75
2023/09/05 04:47:20;;;;;;;2.30;1.90;;;17.30;51.60;;;;;;5037348;28;20467;-74
2023/09/05 04:49:48;;;;;;;3.65;2.38;;;17.30;51.80;;;;;;5037851;28;20029;-73
2023/09/05 04:52:14;;;;;;;4.28;2.28;;;17.30;51.50;;;;;;5043046;28;20099;-74
2023/09/05 04:54:40;;;;;;;2.85;2.40;;;17.30;51.20;;;;;;5038666;28;20467;-74
2023/09/05 04:57:06;;;;;;;3.10;2.50;;;17.30;51.20;;;;;;5037763;28;20032;-73
2023/09/05 04:59:31;;;;;;;5.32;2.03;;;17.30;51.60;;;;;;5037603;28;20037;-74
2023/09/05 05:01:57;;;;;;;3.08;2.10;;;17.40;51.50;;;;;;5037639;28;20052;-74
2023/09/05 05:04:23;;;;;;;3.40;2.70;;;17.30;51.80;;;;;;5037012;28;20347;-74
2023/09/05 05:06:48;;;;;;;4.70;3.40;;;17.40;51.90;;;;;;5037515;28;20025;-75
2023/09/05 05:09:14;;;;;;;6.00;2.80;;;17.40;51.80;;;;;;5037648;28;20084;-73
2023/09/05 05:11:39;;;;;;;3.53;2.50;;;17.40;50.90;;;;;;5037568;28;20021;-73
2023/09/05 05:14:05;;;;;;;2.30;1.95;;;17.30;51.40;;;;;;5037246;28;20021;-73
2023/09/05 05:16:31;;;;;;;2.58;2.30;;;17.40;51.70;;;;;;5037268;28;20025;-74
2023/09/05 05:18:56;;;;;;;3.03;2.28;;;17.40;51.80;;;;;;5037539;28;20017;-73
2023/09/05 05:21:22;;;;;;;4.72;2.35;;;17.40;51.90;;;;;;5037158;28;20570;-73
2023/09/05 05:23:48;;;;;;;2.67;2.40;;;17.50;51.90;;;;;;5037283;28;20052;-73
2023/09/05 05:26:13;;;;;;;3.72;2.28;;;17.40;51.80;;;;;;5037349;28;20123;-75
2023/09/05 05:28:39;;;;;;;4.68;2.22;;;17.50;51.10;;;;;;5037324;28;20033;-75
2023/09/05 05:31:13;;;;;;;2.95;2.40;;;17.60;51.20;;;;;;5038353;28;20064;-75
2023/09/05 05:33:39;;;;;;;2.60;2.38;;;17.60;50.50;;;;;;5039604;28;20028;-75
2023/09/05 05:36:05;;;;;;;4.22;2.28;;;17.80;49.60;;;;;;5036765;28;20051;-74
2023/09/05 05:38:30;;;;;;;3.28;2.33;;;17.80;50.20;;;;;;5036972;28;20025;-74
2023/09/05 05:40:57;;;;;;;3.25;2.50;;;17.90;49.50;;;;;;5036996;28;20247;-74
2023/09/05 05:43:24;;;;;;;4.15;2.45;;;18.00;49.00;;;;;;5036908;28;20036;-74
2023/09/05 05:45:51;;;;;;;2.83;2.33;;;18.00;49.00;;;;;;5036890;28;20089;-74
2023/09/05 05:48:17;;;;;;;4.53;2.38;;;18.00;48.90;;;;;;5036622;28;20040;-73
2023/09/05 05:50:43;;;;;;;3.88;2.65;;;18.00;48.90;;;;;;5036831;28;20024;-72
2023/09/05 05:53:08;;;;;;;5.57;2.90;;;18.10;49.10;;;;;;5036541;28;20483;-74
2023/09/05 05:55:34;;;;;;;4.43;2.83;;;18.10;48.90;;;;;;5036791;28;20142;-74
2023/09/05 05:58:00;;;;;;;7.50;2.95;;;18.20;49.40;;;;;;5036644;28;20332;-76
2023/09/05 06:00:27;;;;;;;3.28;2.55;;;18.20;49.20;;;;;;5054120;28;20387;-74
2023/09/05 06:02:52;;;;;;;3.60;2.33;;;18.20;48.90;;;;;;5036317;28;20060;-74
2023/09/05 06:05:18;;;;;;;3.90;2.55;;;18.30;49.40;;;;;;5036376;28;20443;-73
2023/09/05 06:07:44;;;;;;;3.47;2.80;;;18.40;49.10;;;;;;5036170;28;20021;-74
2023/09/05 06:10:11;;;;;;;4.80;2.75;;;18.40;49.30;;;;;;5036229;28;20025;-73
2023/09/05 06:12:37;;;;;;;5.18;2.55;;;18.50;49.10;;;;;;5036140;28;20211;-73
2023/09/05 06:15:02;;;;;;;4.65;3.10;;;18.50;49.10;;;;;;5036117;28;20113;-73
2023/09/05 06:17:28;;;;;;;3.08;2.60;;;18.50;49.10;;;;;;5036013;28;20025;-73
2023/09/05 06:19:53;;;;;;;5.82;2.63;;;18.60;50.10;;;;;;5035998;28;20036;-73
2023/09/05 06:22:19;;;;;;;3.25;2.60;;;18.70;49.30;;;;;;5035766;28;20045;-74
2023/09/05 06:24:45;;;;;;;3.08;2.75;;;18.70;49.20;;;;;;5035401;28;20111;-73
2023/09/05 06:27:10;;;;;;;4.68;2.70;;;18.60;49.20;;;;;;5036069;28;20044;-73
2023/09/05 06:29:36;;;;;;;5.97;2.67;;;18.60;49.60;;;;;;5035583;28;20032;-74
2023/09/05 06:32:02;;;;;;;4.05;2.90;;;18.70;49.60;;;;;;5035982;28;20033;-73
2023/09/05 06:34:27;;;;;;;7.00;2.80;;;18.70;49.40;;;;;;5035553;28;20306;-74
2023/09/05 06:36:53;;;;;;;3.58;2.55;;;18.80;49.50;;;;;;5034983;28;20036;-74
2023/09/05 06:39:20;;;;;;;3.75;2.50;;;18.80;49.40;;;;;;5035714;28;20033;-74
2023/09/05 06:41:46;;;;;;;5.25;3.15;;;18.90;49.40;;;;;;5035890;28;20032;-75
2023/09/05 06:44:11;;;;;;;7.82;2.70;;;19.00;48.80;;;;;;5018470;28;20126;-74
2023/09/05 06:46:37;;;;;;;3.47;2.40;;;19.10;48.60;;;;;;5035349;28;20443;-74
2023/09/05 06:49:03;;;;;;;4.15;2.53;;;19.20;48.10;;;;;;5035661;28;20391;-74
2023/09/05 06:51:32;;;;;;;4.60;2.40;;;19.30;48.40;;;;;;5052947;28;20467;-75
2023/09/05 06:54:00;;;;;;;3.80;2.60;;;19.40;47.40;;;;;;5041146;28;20159;-76
2023/09/05 06:56:26;;;;;;;4.03;2.60;;;19.60;47.60;;;;;;5035382;28;20131;-75
2023/09/05 06:58:53;;;;;;;2.40;2.20;;;19.70;48.30;;;;;;5035221;28;20108;-75
2023/09/05 07:01:18;;;;;;;7.20;2.55;;;19.90;47.80;;;;;;5035010;28;20017;-75
2023/09/05 07:03:44;;;;;;;2.58;2.08;;;19.90;46.60;;;;;;5035094;28;20033;-75
2023/09/05 07:06:09;;;;;;;3.40;2.13;;;20.00;46.00;;;;;;5035137;28;20021;-75
2023/09/05 07:08:35;;;;;;;5.43;2.40;;;20.10;46.70;;;;;;5037985;28;20075;-81
2023/09/05 07:11:04;;;;;;;5.38;2.50;;;20.20;47.80;;;;;;5044247;28;20051;-78
2023/09/05 07:13:33;;;;;;;4.82;2.70;;;20.30;47.10;;;;;;5053160;28;20104;-77
2023/09/05 07:15:58;;;;;;;4.20;2.53;;;20.30;46.50;;;;;;5018761;28;20116;-80
2023/09/05 07:18:24;;;;;;;4.15;2.20;;;20.40;46.20;;;;;;5034847;28;20117;-77
2023/09/05 07:20:51;;;;;;;4.18;2.20;;;20.40;45.30;;;;;;5034767;28;20403;-76
2023/09/05 07:23:16;;;;;;;3.25;2.30;;;20.60;45.30;;;;;;5034929;28;20119;-77
2023/09/05 07:25:42;;;;;;;2.97;2.10;;;20.60;45.10;;;;;;5033898;28;20124;-77
2023/09/05 07:28:08;;;;;;;3.03;2.10;;;20.70;44.80;;;;;;5015042;28;20381;-81
2023/09/05 07:30:34;;;;;;;2.80;2.35;;;20.70;44.70;;;;;;5015481;28;20056;-78
2023/09/05 07:32:59;;;;;;;3.33;2.15;;;20.80;44.50;;;;;;5017488;28;20039;-76
2023/09/05 07:35:25;;;;;;;2.15;1.95;;;20.80;44.50;;;;;;5000608;28;20059;-75
2023/09/05 07:37:51;;;;;;;2.47;2.25;;;21.00;44.50;;;;;;5014814;28;20071;-76
2023/09/05 07:40:17;;;;;;;2.78;2.15;;;21.00;44.50;;;;;;5014978;28;20040;-74
2023/09/05 07:42:43;;;;;;;3.45;2.30;;;21.10;43.80;;;;;;5015103;28;20364;-78
2023/09/05 07:45:13;;;;;;;2.03;1.75;;;21.20;44.20;;;;;;5015315;28;20175;-80
2023/09/05 07:47:39;;;;;;;2.72;2.30;;;21.20;43.50;;;;;;5032480;28;20025;-78
2023/09/05 07:50:05;;;;;;;2.20;1.98;;;21.20;44.30;;;;;;4998253;28;20099;-79
2023/09/05 07:52:34;;;;;;;2.15;1.95;;;21.20;44.00;;;;;;5014626;28;20021;-81
2023/09/05 07:54:59;;;;;;;2.28;1.90;;;21.30;44.50;;;;;;5014569;28;20021;-79
2023/09/05 07:57:25;;;;;;;3.83;2.17;;;21.40;43.60;;;;;;5015939;28;20025;-77
2023/09/05 07:59:50;;;;;;;1.80;1.70;;;21.50;44.20;;;;;;5019061;28;20510;-78
2023/09/05 08:02:16;;;;;;;3.97;2.00;;;21.60;44.20;;;;;;5033466;28;20029;-77
2023/09/05 08:04:43;;;;;;;3.33;2.10;;;21.60;43.50;;;;;;5019086;28;20395;-79
2023/09/05 08:07:09;;;;;;;5.82;2.13;;;21.70;44.10;;;;;;5036409;28;20079;-78
2023/09/05 08:09:35;;;;;;;4.65;1.98;;;21.80;43.00;;;;;;5021462;28;20030;-78
2023/09/05 08:12:03;;;;;;;2.83;1.75;;;21.90;43.00;;;;;;5020847;28;20022;-81
2023/09/05 08:14:29;;;;;;;2.20;2.00;;;22.00;43.30;;;;;;5019337;28;20352;-79
2023/09/05 08:16:55;;;;;;;2.42;1.80;;;22.20;43.70;;;;;;5036786;28;20037;-79
2023/09/05 08:19:20;;;;;;;3.25;1.80;;;22.30;43.00;;;;;;5018522;28;20552;-81
2023/09/05 08:21:46;;;;;;;4.07;1.70;;;22.30;41.90;;;;;;5033101;28;20051;-78
2023/09/05 08:24:12;;;;;;;4.93;2.13;;;22.30;42.80;;;;;;5038239;28;20040;-77
2023/09/05 08:26:39;;;;;;;2.33;2.00;;;22.40;42.50;;;;;;5056818;28;20029;-79
2023/09/05 08:29:06;;;;;;;2.92;2.08;;;22.40;43.00;;;;;;5038676;28;20067;-80
2023/09/05 08:31:31;;;;;;;4.28;2.00;;;22.50;42.60;;;;;;5056164;28;20482;-77
2023/09/05 08:33:58;;;;;;;2.50;1.63;;;22.60;43.50;;;;;;5038381;28;20029;-79
2023/09/05 08:36:24;;;;;;;2.28;1.77;;;22.70;42.20;;;;;;5038259;28;20033;-80
2023/09/05 08:38:50;;;;;;;2.05;1.58;;;22.70;42.10;;;;;;5039800;28;20021;-80
2023/09/05 08:41:15;;;;;;;2.70;1.52;;;22.80;42.60;;;;;;5039362;28;20021;-77
2023/09/05 08:43:41;;;;;;;2.28;1.73;;;22.90;43.30;;;;;;5063057;28;20059;-77
2023/09/05 08:46:10;;;;;;;2.40;1.33;;;23.10;43.00;;;;;;5038103;28;20494;-77
2023/09/05 08:48:39;;;;;;;2.13;1.60;;;23.20;41.90;;;;;;5037462;28;20025;-77
2023/09/05 08:51:05;;;;;;;2.40;1.27;;;23.20;41.00;;;;;;5037611;28;20028;-78
2023/09/05 08:53:37;;;;;;;1.92;1.40;;;23.20;40.00;;;;;;5037314;28;20036;-78
2023/09/05 08:56:03;;;;;;;1.83;1.52;;;23.30;40.30;;;;;;5037663;28;20024;-78
2023/09/05 08:58:30;;;;;;;3.50;1.50;;;23.40;39.70;;;;;;5055636;28;20021;-79
2023/09/05 09:00:56;;;;;;;1.27;1.08;;;23.50;40.60;;;;;;5037692;28;20429;-78
2023/09/05 09:03:22;;;;;;;2.97;1.45;;;23.50;39.80;;;;;;5037729;28;20123;-79
2023/09/05 09:05:49;;;;;;;1.55;1.30;;;23.60;40.00;;;;;;5036629;28;20132;-79
2023/09/05 09:08:15;;;;;;;1.92;1.30;;;23.70;40.30;;;;;;5036775;28;20029;-79
2023/09/05 09:10:42;;;;;;;1.05;0.98;;;23.90;39.50;;;;;;5037496;28;20021;-78
2023/09/05 09:13:17;;;;;;;2.45;1.00;;;24.10;38.20;;;;;;5002045;28;20034;-76
2023/09/05 09:15:43;;;;;;;1.27;1.17;;;24.10;37.40;;;;;;5015294;28;20025;-77
2023/09/05 09:18:13;;;;;;;2.13;1.40;;;24.20;38.00;;;;;;5017472;28;20264;-77
2023/09/05 09:20:43;;;;;;;2.47;1.13;;;24.20;37.80;;;;;;5017856;28;20034;-79
2023/09/05 09:23:09;;;;;;;1.50;1.08;;;24.30;37.10;;;;;;5027984;28;20032;-78
2023/09/05 09:25:35;;;;;;;1.85;1.15;;;24.40;36.50;;;;;;5025657;28;20017;-79
2023/09/05 09:28:01;;;;;;;2.55;1.63;;;24.60;36.50;;;;;;5028141;28;20044;-80
2023/09/05 09:30:29;;;;;;;2.22;1.35;;;24.60;35.90;;;;;;5030267;28;20091;-77
2023/09/05 09:32:55;;;;;;;2.22;1.30;;;24.70;35.90;;;;;;5008977;28;20029;-79
2023/09/05 09:35:21;;;;;;;2.22;1.65;;;25.00;35.50;;;;;;5027474;28;20383;-78
2023/09/05 09:37:49;;;;;;;1.63;1.10;;;25.10;34.80;;;;;;5025050;28;20048;-80
2023/09/05 09:40:17;;;;;;;2.67;1.05;;;25.20;33.70;;;;;;5010723;28;20017;-77
2023/09/05 09:42:47;;;;;;;2.05;1.10;;;25.10;33.60;;;;;;5008213;28;20107;-76
2023/09/05 09:45:13;;;;;;;1.35;1.25;;;25.10;33.50;;;;;;5021101;28;20463;-76
2023/09/05 09:47:47;;;;;;;2.60;1.48;;;25.20;33.90;;;;;;5026302;28;20130;-79
2023/09/05 09:50:13;;;;;;;3.00;1.05;;;25.30;33.60;;;;;;5020903;28;20036;-79
2023/09/05 09:52:43;;;;;;;3.38;1.00;;;25.50;34.20;;;;;;5025803;28;20025;-77
2023/09/05 09:55:11;;;;;;;3.33;1.17;;;25.80;34.30;;;;;;5025164;28;20024;-78
2023/09/05 09:57:45;;;;;;;2.10;0.90;;;25.90;33.30;;;;;;5026699;28;20119;-77
2023/09/05 10:00:15;;;;;;;1.50;0.93;;;26.10;33.80;;;;;;5014476;28;20460;-78
2023/09/05 10:02:43;;;;;;;1.38;1.20;;;26.20;33.00;;;;;;5019129;28;20116;-81
2023/09/05 10:05:10;;;;;;;2.25;1.10;;;26.40;32.80;;;;;;5026219;28;20030;-79
2023/09/05 10:07:37;;;;;;;1.95;1.20;;;26.20;31.80;;;;;;5025274;28;20128;-79
2023/09/05 10:10:04;;;;;;;3.72;1.15;;;26.20;31.40;;;;;;5026100;28;20063;-77
2023/09/05 10:12:31;;;;;;;2.53;0.85;;;26.30;32.70;;;;;;5023783;28;20021;-79
2023/09/05 10:14:58;;;;;;;1.38;1.15;;;26.40;30.50;;;;;;5025172;28;20021;-79
2023/09/05 10:17:26;;;;;;;2.85;1.00;;;26.50;31.90;;;;;;5026571;28;20024;-78
2023/09/05 10:19:53;;;;;;;2.03;1.10;;;26.60;31.00;;;;;;5023319;28;20032;-81
2023/09/05 10:22:19;;;;;;;0.90;0.60;;;26.60;30.70;;;;;;5046949;28;20097;-77
2023/09/05 10:24:45;;;;;;;1.13;0.90;;;26.70;28.30;;;;;;5037112;28;20107;-77
2023/09/05 10:27:11;;;;;;;0.80;0.70;;;26.70;27.60;;;;;;5047956;28;20021;-77
2023/09/05 10:29:42;;;;;;;1.23;0.70;;;26.80;28.00;;;;;;5065210;28;20025;-77
2023/09/05 10:32:23;;;;;;;2.00;0.85;;;26.90;28.40;;;;;;5046275;28;20439;-77
2023/09/05 10:35:06;;;;;;;0.90;0.90;;;27.10;28.70;;;;;;5045955;28;20037;-77
2023/09/05 10:37:39;;;;;;;1.25;0.70;;;27.20;28.20;;;;;;5057071;28;20033;-77
2023/09/05 10:40:08;;;;;;;1.63;0.80;;;27.30;27.60;;;;;;5034219;28;20032;-76
2023/09/05 10:42:35;;;;;;;1.08;0.70;;;27.30;28.30;;;;;;5029874;28;20025;-75
2023/09/05 10:45:23;;;;;;;3.88;0.90;;;27.60;29.10;;;;;;5023360;28;20038;-72
2023/09/05 10:47:53;;;;;;;1.30;0.82;;;27.70;27.50;;;;;;5032868;28;20040;-74
2023/09/05 10:50:20;;;;;;;1.50;0.65;;;27.90;27.10;;;;;;5042810;28;20028;-71
2023/09/05 10:52:49;;;;;;;1.38;0.90;;;28.10;27.70;;;;;;5053944;28;20021;-72
2023/09/05 10:55:32;;;;;;;0.70;0.70;;;28.30;26.50;;;;;;5052929;28;20104;-72
2023/09/05 10:57:59;;;;;;;0.90;0.90;;;28.30;26.50;;;;;;5052906;28;20387;-74
2023/09/05 11:00:29;;;;;;;0.98;0.85;;;28.40;27.10;;;;;;5035651;28;20021;-74
2023/09/05 11:03:16;;;;;;;1.02;0.90;;;28.50;27.30;;;;;;5035167;28;20194;-73
2023/09/05 11:05:42;;;;;;;1.65;0.68;;;28.70;25.80;;;;;;5052830;28;20032;-75
2023/09/05 11:08:21;;;;;;;0.57;0.57;;;28.90;25.50;;;;;;5052523;28;20028;-73
2023/09/05 11:10:47;;;;;;;0.68;0.68;;;29.20;24.40;;;;;;5052650;28;20033;-73
2023/09/05 11:13:16;;;;;;;1.70;1.00;;;29.30;22.60;;;;;;5038280;28;20119;-75
2023/09/05 11:15:44;;;;;;;0.95;0.65;;;29.50;23.10;;;;;;5054830;28;20379;-73
2023/09/05 11:18:14;;;;;;;1.70;0.60;;;29.70;24.40;;;;;;5055371;28;20475;-73
2023/09/05 11:20:40;;;;;;;1.13;0.88;;;30.00;24.20;;;;;;5055346;28;20045;-73
2023/09/05 11:23:21;;;;;;;2.17;1.10;;;30.20;23.70;;;;;;5052684;28;20025;-73
2023/09/05 11:25:48;;;;;;;0.82;0.80;;;30.30;20.20;;;;;;5052631;28;20029;-73
2023/09/05 11:28:15;;;;;;;3.55;0.77;;;30.50;20.50;;;;;;5052509;28;20540;-72
2023/09/05 11:30:43;;;;;;;1.17;0.68;;;30.50;19.80;;;;;;5052392;28;20025;-72
2023/09/05 11:33:09;;;;;;;1.25;0.70;;;30.70;20.70;;;;;;5052920;28;20028;-72
2023/09/05 11:35:35;;;;;;;2.50;1.00;;;30.60;19.30;;;;;;5052689;28;20114;-73
2023/09/05 11:38:04;;;;;;;1.20;1.10;;;30.70;20.00;;;;;;5052422;28;20029;-72
2023/09/05 11:40:30;;;;;;;1.23;0.93;;;30.70;20.00;;;;;;5052390;28;20387;-72
2023/09/05 11:43:06;;;;;;;1.10;1.00;;;30.80;21.70;;;;;;5051907;28;20021;-73
2023/09/05 11:45:33;;;;;;;1.83;0.80;;;30.50;21.20;;;;;;5052370;28;20383;-73
2023/09/05 11:48:01;;;;;;;0.80;0.80;;;30.30;21.90;;;;;;5052186;28;20032;-73
2023/09/05 11:50:28;;;;;;;2.28;0.95;;;30.10;21.60;;;;;;5052299;28;20386;-74
2023/09/05 11:52:54;;;;;;;1.60;0.90;;;30.00;21.30;;;;;;5052242;28;20054;-72
2023/09/05 11:55:21;;;;;;;0.50;0.50;;;29.90;20.70;;;;;;5052465;28;20040;-72
2023/09/05 11:57:50;;;;;;;1.88;0.95;;;30.00;20.60;;;;;;5052192;28;20025;-73
2023/09/05 12:00:16;;;;;;;2.53;0.80;;;30.10;21.50;;;;;;5052254;28;20139;-75
2023/09/05 12:02:42;;;;;;;0.60;0.60;;;30.20;20.60;;;;;;5052236;28;20047;-75
2023/09/05 12:05:12;;;;;;;1.50;0.90;;;30.40;21.70;;;;;;5052201;28;20033;-77
2023/09/05 12:07:38;;;;;;;1.75;0.73;;;30.40;21.90;;;;;;5052183;28;20025;-76
2023/09/05 12:10:04;;;;;;;1.27;0.93;;;30.40;21.60;;;;;;5052285;28;20043;-74
2023/09/05 12:12:30;;;;;;;0.60;0.60;;;30.50;22.40;;;;;;5055001;28;20121;-73
2023/09/05 12:14:57;;;;;;;0.70;0.70;;;30.50;20.90;;;;;;5052094;28;20021;-76
2023/09/05 12:17:24;;;;;;;1.25;0.88;;;30.60;20.60;;;;;;5050913;28;20040;-74
2023/09/05 12:19:52;;;;;;;0.55;0.55;;;30.70;20.10;;;;;;5050861;28;20029;-73
2023/09/05 12:22:24;;;;;;;3.63;0.70;;;30.70;19.10;;;;;;5051961;28;20045;-73
2023/09/05 12:25:14;;;;;;;1.33;1.00;;;30.70;18.70;;;;;;5034034;28;20159;-73
2023/09/05 12:27:42;;;;;;;0.95;0.80;;;30.70;19.00;;;;;;5043473;28;20478;-74
2023/09/05 12:30:22;;;;;;;0.75;0.68;;;30.70;18.90;;;;;;5052078;28;20052;-73
2023/09/05 12:32:48;;;;;;;0.98;0.77;;;30.80;18.30;;;;;;5051949;28;20024;-77
2023/09/05 12:35:13;;;;;;;0.88;0.73;;;30.80;19.50;;;;;;5051935;28;20021;-73
2023/09/05 12:37:39;;;;;;;1.83;1.10;;;31.00;19.40;;;;;;5052071;28;20025;-74
2023/09/05 12:40:06;;;;;;;0.90;0.90;;;31.20;20.00;;;;;;5034295;28;20039;-74
2023/09/05 12:42:31;;;;;;;2.15;1.05;;;31.50;19.80;;;;;;5051955;28;20017;-74
2023/09/05 12:44:57;;;;;;;2.55;0.70;;;31.70;19.50;;;;;;5055471;28;20036;-74
2023/09/05 12:47:23;;;;;;;0.57;0.57;;;31.90;17.50;;;;;;5055213;28;20029;-73